createdAt,value
2023-04-08T00:02:39.148Z,3.80
2023-04-08T00:07:44.104Z,3.80
2023-04-08T00:12:48.041Z,2.00
2023-04-08T00:17:50.867Z,4.20
2023-04-08T00:22:55.045Z,3.80
2023-04-08T00:27:57.855Z,3.00
2023-04-08T00:33:01.715Z,3.00
2023-04-08T00:38:08.035Z,2.00
2023-04-08T00:43:10.853Z,3.80
2023-04-08T00:48:13.720Z,3.80
2023-04-08T00:53:19.083Z,2.20
2023-04-08T00:58:21.820Z,2.40
2023-04-08T01:03:28.427Z,3.40
2023-04-08T01:08:32.659Z,2.00
2023-04-08T01:13:36.276Z,2.40
2023-04-08T01:18:39.378Z,2.00
2023-04-08T01:23:56.572Z,2.00
2023-04-08T01:29:01.771Z,2.00
2023-04-08T01:34:06.312Z,3.80
2023-04-08T01:39:09.279Z,1.80
2023-04-08T01:44:13.402Z,2.00
2023-04-08T01:49:16.294Z,2.00
2023-04-08T01:54:19.086Z,2.00
2023-04-08T01:59:23.565Z,2.00
2023-04-08T02:04:26.434Z,2.00
2023-04-08T02:09:29.485Z,2.40
2023-04-08T02:14:34.428Z,3.80
2023-04-08T02:19:38.125Z,2.00
2023-04-08T02:24:40.902Z,2.00
2023-04-08T02:29:45.105Z,3.60
2023-04-08T02:34:47.864Z,2.40
2023-04-08T02:39:50.708Z,2.00
2023-04-08T02:44:54.844Z,2.00
2023-04-08T02:49:58.867Z,2.00
2023-04-08T02:55:01.623Z,2.00
2023-04-08T03:00:07.177Z,1.60
2023-04-08T03:05:10.625Z,1.40
2023-04-08T03:10:13.466Z,1.00
2023-04-08T03:15:17.588Z,2.00
2023-04-08T03:20:20.340Z,1.20
2023-04-08T03:25:23.109Z,2.00
2023-04-08T03:30:27.512Z,1.20
2023-04-08T03:35:30.333Z,1.00
2023-04-08T03:40:33.107Z,1.00
2023-04-08T03:45:37.218Z,2.00
2023-04-08T03:50:40.216Z,1.00
2023-04-08T03:55:42.956Z,1.20
2023-04-08T04:00:47.111Z,1.60
2023-04-08T04:05:49.858Z,2.00
2023-04-08T04:10:52.611Z,1.80
2023-04-08T04:15:57.522Z,2.00
2023-04-08T04:21:00.336Z,1.80
2023-04-08T04:26:03.138Z,1.00
2023-04-08T04:31:07.350Z,1.20
2023-04-08T04:36:10.126Z,2.00
2023-04-08T04:41:13.173Z,0.80
2023-04-08T04:46:17.411Z,1.00
2023-04-08T04:51:20.585Z,1.00
2023-04-08T04:56:23.405Z,1.80
2023-04-08T05:01:28.883Z,1.00
2023-04-08T05:06:31.905Z,1.00
2023-04-08T05:11:34.815Z,1.00
2023-04-08T05:16:39.213Z,1.00
2023-04-08T05:21:42.494Z,2.00
2023-04-08T05:26:45.632Z,1.00
2023-04-08T05:31:49.774Z,1.00
2023-04-08T05:36:52.749Z,1.00
2023-04-08T05:41:55.542Z,1.00
2023-04-08T05:47:00.499Z,1.00
2023-04-08T05:52:03.703Z,1.00
2023-04-08T05:57:08.103Z,1.00
2023-04-08T06:02:13.383Z,1.80
2023-04-08T06:07:16.247Z,1.20
2023-04-08T06:12:19.222Z,1.00
2023-04-08T06:17:23.448Z,2.00
2023-04-08T06:22:26.511Z,1.80
2023-04-08T06:27:29.309Z,0.20
2023-04-08T06:32:33.519Z,1.00
2023-04-08T06:37:38.511Z,1.00
2023-04-08T06:42:44.875Z,1.00
2023-04-08T06:47:57.825Z,1.00
2023-04-08T06:53:00.730Z,1.00
2023-04-08T06:58:03.501Z,2.00
2023-04-08T07:03:07.703Z,1.00
2023-04-08T07:08:10.514Z,5.00
2023-04-08T07:13:13.276Z,8.40
2023-04-08T07:18:17.845Z,8.80
2023-04-08T07:23:20.662Z,7.60
2023-04-08T07:28:23.420Z,6.60
2023-04-08T07:33:28.321Z,7.40
2023-04-08T07:38:31.034Z,5.40
2023-04-08T07:43:34.447Z,6.80
2023-04-08T07:48:38.749Z,5.80
2023-04-08T07:53:41.570Z,5.20
2023-04-08T07:58:44.550Z,5.00
2023-04-08T08:03:49.054Z,5.80
2023-04-08T08:08:52.014Z,6.00
2023-04-08T08:13:54.850Z,5.40
2023-04-08T08:18:59.470Z,5.00
2023-04-08T08:24:02.305Z,4.00
2023-04-08T08:29:06.478Z,5.00
2023-04-08T08:34:10.709Z,4.00
2023-04-08T08:39:13.505Z,5.00
2023-04-08T08:44:16.283Z,4.40
2023-04-08T08:49:20.568Z,5.00
2023-04-08T08:54:23.319Z,5.00
2023-04-08T08:59:26.191Z,4.00
2023-04-08T09:04:30.801Z,4.00
2023-04-08T09:09:48.954Z,4.80
2023-04-08T09:14:51.890Z,5.00
2023-04-08T09:20:11.806Z,4.80
2023-04-08T09:25:24.267Z,4.00
2023-04-08T09:30:27.836Z,4.00
2023-04-08T09:35:32.122Z,4.00
2023-04-08T09:40:35.808Z,4.40
2023-04-08T09:45:38.844Z,4.40
2023-04-08T09:50:44.692Z,4.00
2023-04-08T09:55:48.269Z,4.00
2023-04-08T10:00:51.481Z,4.00
2023-04-08T10:05:56.570Z,3.20
2023-04-08T10:10:59.336Z,4.40
2023-04-08T10:16:20.796Z,4.20
2023-04-08T10:50:32.313Z,6.40
2023-04-08T10:55:35.126Z,5.20
2023-04-08T11:00:38.476Z,6.60
2023-04-08T11:05:43.676Z,6.60
2023-04-08T11:10:46.734Z,6.00
2023-04-08T11:15:49.506Z,7.20
2023-04-08T11:20:53.784Z,9.00
2023-04-08T11:25:56.705Z,10.80
2023-04-08T11:30:59.600Z,10.60
2023-04-08T11:36:04.762Z,10.40
2023-04-08T11:41:07.824Z,10.40
2023-04-08T11:46:12.569Z,11.20
2023-04-08T11:51:17.328Z,12.00
2023-04-08T11:56:20.265Z,10.00
2023-04-08T12:01:23.191Z,10.20
2023-04-08T12:06:28.378Z,10.00
2023-04-08T12:11:31.376Z,8.80
2023-04-08T12:16:34.239Z,10.00
2023-04-08T12:21:38.462Z,9.40
2023-04-08T12:26:41.434Z,9.20
2023-04-08T12:31:44.481Z,12.00
2023-04-08T12:36:49.753Z,11.20
2023-04-08T12:41:52.592Z,12.40
2023-04-08T12:46:55.696Z,11.20
2023-04-08T12:51:59.942Z,10.20
2023-04-08T12:57:02.960Z,12.00
2023-04-08T13:02:05.948Z,11.80
2023-04-08T13:07:10.306Z,10.80
2023-04-08T13:12:13.151Z,12.00
2023-04-08T13:17:16.343Z,10.80
2023-04-08T13:22:20.723Z,10.20
2023-04-08T13:27:23.541Z,11.80
2023-04-08T13:32:26.433Z,9.00
2023-04-08T13:37:30.617Z,10.80
2023-04-08T13:42:33.382Z,12.20
2023-04-08T13:47:38.083Z,9.00
2023-04-08T13:52:42.392Z,11.60
2023-04-08T13:57:45.190Z,10.40
2023-04-08T14:02:48.115Z,9.00
2023-04-08T14:07:52.359Z,9.40
2023-04-08T14:12:55.577Z,10.00
2023-04-08T14:17:58.405Z,9.20
2023-04-08T14:23:02.550Z,11.40
2023-04-08T14:28:06.304Z,8.00
2023-04-08T14:33:09.223Z,9.00
2023-04-08T14:38:13.548Z,9.40
2023-04-08T14:43:16.270Z,10.80
2023-04-08T14:48:19.064Z,9.20
2023-04-08T14:53:23.378Z,9.00
2023-04-08T14:58:26.248Z,8.00
2023-04-08T15:03:29.219Z,9.00
2023-04-08T15:08:34.889Z,8.60
2023-04-08T15:13:37.752Z,9.20
2023-04-08T15:18:41.056Z,9.00
2023-04-08T15:23:45.826Z,10.00
2023-04-08T15:28:48.746Z,7.80
2023-04-08T15:33:52.295Z,7.80
2023-04-08T15:38:56.813Z,8.00
2023-04-08T15:43:59.655Z,8.20
2023-04-08T15:49:02.406Z,8.20
2023-04-08T15:54:06.784Z,9.00
2023-04-08T15:59:09.525Z,9.40
2023-04-08T16:04:12.715Z,10.20
2023-04-08T16:09:18.682Z,10.00
2023-04-08T16:14:21.802Z,11.20
2023-04-08T16:19:24.614Z,10.80
2023-04-08T16:24:28.838Z,10.00
2023-04-08T16:29:32.641Z,11.00
2023-04-08T16:34:36.056Z,10.60
2023-04-08T16:39:40.396Z,11.00
2023-04-08T16:44:43.189Z,11.40
2023-04-08T16:49:45.947Z,11.20
2023-04-08T16:54:50.111Z,12.80
2023-04-08T16:59:53.117Z,13.00
2023-04-08T17:04:55.897Z,13.60
2023-04-08T17:10:00.326Z,11.80
2023-04-08T17:15:03.307Z,12.40
2023-04-08T17:20:07.390Z,12.40
2023-04-08T17:25:12.855Z,13.00
2023-04-08T17:30:15.656Z,13.60
2023-04-08T17:35:18.604Z,11.80
2023-04-08T17:40:22.836Z,12.80
2023-04-08T17:45:25.828Z,11.80
2023-04-08T17:50:28.577Z,12.00
2023-04-08T17:55:33.205Z,12.00
2023-04-08T18:00:36.267Z,11.60
2023-04-08T18:05:39.091Z,10.20
2023-04-08T18:10:43.672Z,10.40
2023-04-08T18:15:47.049Z,12.00
2023-04-08T18:20:49.776Z,10.40
2023-04-08T18:25:54.001Z,9.00
2023-04-08T18:30:56.905Z,10.00
2023-04-08T18:36:07.000Z,13.00
2023-04-08T18:41:11.529Z,11.60
2023-04-08T18:46:14.373Z,10.60
2023-04-08T18:51:17.687Z,11.00
2023-04-08T18:56:22.128Z,12.60
2023-04-08T19:01:25.029Z,10.00
2023-04-08T19:06:28.593Z,12.80
2023-04-08T19:11:32.818Z,12.00
2023-04-08T19:16:35.697Z,12.40
2023-04-08T19:21:38.541Z,13.80
2023-04-08T19:26:42.711Z,12.00
2023-04-08T19:31:45.674Z,11.60
2023-04-08T19:36:48.815Z,12.00
2023-04-08T19:41:52.955Z,12.20
2023-04-08T19:46:57.665Z,12.00
2023-04-08T19:52:01.167Z,10.00
2023-04-08T19:57:08.110Z,9.80
2023-04-08T20:02:10.957Z,12.80
2023-04-08T20:07:13.846Z,10.00
2023-04-08T20:12:18.125Z,10.40
2023-04-08T20:17:21.681Z,10.00
2023-04-08T20:22:24.570Z,11.60
2023-04-08T20:27:28.724Z,12.00
2023-04-08T20:32:31.588Z,11.20
2023-04-08T20:37:34.488Z,12.00
2023-04-08T20:42:38.662Z,12.00
2023-04-08T20:47:41.453Z,12.60
2023-04-08T20:52:44.262Z,11.60
2023-04-08T20:57:48.452Z,12.80
2023-04-08T21:02:51.560Z,13.00
2023-04-08T21:07:54.600Z,13.00
2023-04-08T21:12:59.917Z,11.60
2023-04-08T21:18:02.835Z,12.00
2023-04-08T21:23:07.102Z,10.00
2023-04-08T21:28:11.210Z,10.40
2023-04-08T21:33:14.408Z,12.00
2023-04-08T21:38:17.223Z,9.80
2023-04-08T21:43:21.843Z,9.80
2023-04-08T21:48:24.807Z,10.00
2023-04-08T21:53:27.636Z,9.20
2023-04-08T21:58:31.710Z,10.00
2023-04-08T22:03:34.643Z,9.00
2023-04-08T22:08:37.474Z,10.40
2023-04-08T22:13:41.619Z,9.00
2023-04-08T22:18:44.383Z,10.00
2023-04-08T22:23:47.101Z,9.80
2023-04-08T22:28:51.539Z,8.80
2023-04-08T22:33:54.663Z,9.00
2023-04-08T22:38:57.442Z,8.80
2023-04-08T22:44:01.598Z,9.00
2023-04-08T22:49:04.395Z,9.60
2023-04-08T22:54:07.200Z,11.00
2023-04-08T22:59:11.369Z,10.00
2023-04-08T23:04:14.202Z,9.00
2023-04-08T23:09:17.092Z,8.00
2023-04-08T23:14:21.237Z,8.40
2023-04-08T23:19:24.009Z,10.00
2023-04-08T23:24:26.780Z,9.80
2023-04-08T23:29:31.458Z,9.00
2023-04-08T23:34:36.299Z,9.20
2023-04-08T23:39:39.280Z,9.00
2023-04-08T23:44:43.391Z,9.80
2023-04-08T23:49:46.175Z,9.80
2023-04-08T23:54:50.788Z,8.20
2023-04-08T23:59:54.937Z,7.80
